createdAt,value
2023-04-19T00:01:04.587Z,4.20
2023-04-19T00:03:32.674Z,3.95
2023-04-19T00:06:00.368Z,3.63
2023-04-19T00:08:27.992Z,3.28
2023-04-19T00:10:55.507Z,4.03
2023-04-19T00:13:23.080Z,4.40
2023-04-19T00:15:50.751Z,4.22
2023-04-19T00:18:18.284Z,4.93
2023-04-19T00:20:45.884Z,2.75
2023-04-19T00:23:13.364Z,3.15
2023-04-19T00:25:40.819Z,4.68
2023-04-19T00:28:08.426Z,2.85
2023-04-19T00:30:36.059Z,6.25
2023-04-19T00:33:03.762Z,2.75
2023-04-19T00:35:31.323Z,2.72
2023-04-19T00:37:58.706Z,3.22
2023-04-19T00:40:26.344Z,3.10
2023-04-19T00:42:53.844Z,2.88
2023-04-19T00:45:21.349Z,3.53
2023-04-19T00:47:48.948Z,3.65
2023-04-19T00:50:16.489Z,2.92
2023-04-19T00:52:44.947Z,2.28
2023-04-19T00:55:12.740Z,4.13
2023-04-19T00:57:41.144Z,2.67
2023-04-19T01:00:10.707Z,3.67
2023-04-19T01:02:38.305Z,3.55
2023-04-19T01:05:06.203Z,4.68
2023-04-19T01:07:35.300Z,3.13
2023-04-19T01:10:03.072Z,5.03
2023-04-19T01:12:30.811Z,3.47
2023-04-19T01:14:58.296Z,3.90
2023-04-19T01:17:27.496Z,4.10
2023-04-19T01:20:09.136Z,3.30
2023-04-19T01:22:38.231Z,3.67
2023-04-19T01:25:07.770Z,8.13
2023-04-19T01:27:35.558Z,7.28
2023-04-19T01:30:03.236Z,3.97
2023-04-19T01:32:31.534Z,3.95
2023-04-19T01:34:59.136Z,5.38
2023-04-19T01:37:26.789Z,6.70
2023-04-19T01:39:54.241Z,3.50
2023-04-19T01:42:21.919Z,5.43
2023-04-19T01:44:49.383Z,6.38
2023-04-19T01:47:16.905Z,3.63
2023-04-19T01:49:44.422Z,4.10
2023-04-19T01:52:11.979Z,7.97
2023-04-19T01:54:39.508Z,4.72
2023-04-19T01:57:06.918Z,6.85
2023-04-19T01:59:34.383Z,6.32
2023-04-19T02:02:02.067Z,3.63
2023-04-19T02:04:30.725Z,5.15
2023-04-19T02:06:58.836Z,7.63
2023-04-19T02:09:27.081Z,6.50
2023-04-19T02:11:54.601Z,8.30
2023-04-19T02:14:22.496Z,4.72
2023-04-19T02:16:50.113Z,5.30
2023-04-19T02:19:18.324Z,4.10
2023-04-19T02:21:45.939Z,5.53
2023-04-19T02:24:15.325Z,4.65
2023-04-19T02:26:43.222Z,7.20
2023-04-19T02:29:10.782Z,7.80
2023-04-19T02:31:39.137Z,7.25
2023-04-19T02:34:09.821Z,4.68
2023-04-19T02:36:37.427Z,6.25
2023-04-19T02:39:05.976Z,4.60
2023-04-19T02:41:33.521Z,6.72
2023-04-19T02:44:02.886Z,7.28
2023-04-19T02:46:32.643Z,5.65
2023-04-19T02:49:01.822Z,7.13
2023-04-19T02:51:29.808Z,3.65
2023-04-19T02:54:11.599Z,4.93
2023-04-19T02:56:40.124Z,5.75
2023-04-19T02:59:07.661Z,7.80
2023-04-19T03:01:40.888Z,5.70
2023-04-19T03:04:09.037Z,7.20
2023-04-19T03:06:37.095Z,4.63
2023-04-19T03:09:04.862Z,7.38
2023-04-19T03:11:32.318Z,6.10
2023-04-19T03:13:59.793Z,3.95
2023-04-19T03:16:27.431Z,4.10
2023-04-19T03:18:55.321Z,5.80
2023-04-19T03:21:27.666Z,4.18
2023-04-19T03:23:56.574Z,4.90
2023-04-19T03:26:27.172Z,4.03
2023-04-19T03:28:57.212Z,7.43
2023-04-19T03:31:31.971Z,5.20
2023-04-19T03:34:00.632Z,4.47
2023-04-19T03:36:34.273Z,2.28
2023-04-19T03:39:04.065Z,6.63
2023-04-19T03:41:31.696Z,7.53
2023-04-19T03:44:13.108Z,5.90
2023-04-19T03:46:43.906Z,11.07
2023-04-19T03:49:12.212Z,4.40
2023-04-19T03:51:42.525Z,5.38
2023-04-19T03:54:10.204Z,6.05
2023-04-19T03:56:38.246Z,6.05
2023-04-19T03:59:06.291Z,5.50
2023-04-19T04:01:42.518Z,4.13
2023-04-19T04:04:10.804Z,3.28
2023-04-19T04:06:38.468Z,3.45
2023-04-19T04:09:05.982Z,3.40
2023-04-19T04:11:33.573Z,3.85
2023-04-19T04:14:01.100Z,3.05
2023-04-19T04:16:32.186Z,3.72
2023-04-19T04:19:00.243Z,5.13
2023-04-19T04:21:30.950Z,4.18
2023-04-19T04:24:04.931Z,3.60
2023-04-19T04:26:42.645Z,5.15
2023-04-19T04:29:25.235Z,3.63
2023-04-19T04:31:57.150Z,4.00
2023-04-19T04:34:30.213Z,8.98
2023-04-19T04:37:06.111Z,3.40
2023-04-19T04:39:39.328Z,2.97
2023-04-19T04:42:11.092Z,6.40
2023-04-19T04:44:39.455Z,7.18
2023-04-19T04:47:09.021Z,4.97
2023-04-19T04:49:44.138Z,8.10
2023-04-19T04:52:11.617Z,6.63
2023-04-19T04:54:51.999Z,5.53
2023-04-19T04:57:26.678Z,3.00
2023-04-19T04:59:55.874Z,4.68
2023-04-19T05:02:25.949Z,3.55
2023-04-19T05:04:54.283Z,6.78
2023-04-19T05:07:21.788Z,6.00
2023-04-19T05:09:49.465Z,6.15
2023-04-19T05:12:22.793Z,10.52
2023-04-19T05:14:51.083Z,3.72
2023-04-19T05:17:18.926Z,4.15
2023-04-19T05:19:47.060Z,5.85
2023-04-19T05:22:14.622Z,7.00
2023-04-19T05:24:43.179Z,7.40
2023-04-19T05:27:11.585Z,5.15
2023-04-19T05:29:39.090Z,4.35
2023-04-19T05:32:07.929Z,2.58
2023-04-19T05:34:43.353Z,4.07
2023-04-19T05:37:14.224Z,6.25
2023-04-19T05:39:44.353Z,4.28
2023-04-19T05:42:12.186Z,5.00
2023-04-19T05:44:39.673Z,4.68
2023-04-19T05:47:07.489Z,2.80
2023-04-19T05:50:04.954Z,5.88
2023-04-19T05:52:36.507Z,2.13
2023-04-19T05:55:06.122Z,2.55
2023-04-19T05:57:35.406Z,2.55
2023-04-19T06:00:05.143Z,3.75
2023-04-19T06:02:44.982Z,4.53
2023-04-19T06:05:14.667Z,4.88
2023-04-19T06:07:47.337Z,4.38
2023-04-19T06:10:24.242Z,4.28
2023-04-19T06:12:52.501Z,3.30
2023-04-19T06:15:20.031Z,5.38
2023-04-19T06:17:47.837Z,1.58
2023-04-19T06:20:15.315Z,2.50
2023-04-19T06:22:45.344Z,2.28
2023-04-19T06:25:12.938Z,2.60
2023-04-19T06:27:41.001Z,4.40
2023-04-19T06:30:08.809Z,3.55
2023-04-19T06:32:36.398Z,3.67
2023-04-19T06:35:04.761Z,2.75
2023-04-19T06:37:34.210Z,2.83
2023-04-19T06:40:01.918Z,4.85
2023-04-19T06:42:30.503Z,3.47
2023-04-19T06:44:57.977Z,3.70
2023-04-19T06:47:25.752Z,2.40
2023-04-19T06:49:53.388Z,1.90
2023-04-19T06:52:20.952Z,2.75
2023-04-19T06:54:51.938Z,3.70
2023-04-19T06:57:19.624Z,2.42
2023-04-19T06:59:47.113Z,2.03
2023-04-19T07:02:14.671Z,2.25
2023-04-19T07:04:42.310Z,3.08
2023-04-19T07:07:09.997Z,2.75
2023-04-19T07:09:37.500Z,3.15
2023-04-19T07:12:05.155Z,3.97
2023-04-19T07:14:33.366Z,3.58
2023-04-19T07:17:01.188Z,2.20
2023-04-19T07:19:29.350Z,2.50
2023-04-19T07:21:56.814Z,2.22
2023-04-19T07:24:24.324Z,5.13
2023-04-19T07:26:51.902Z,1.65
2023-04-19T07:29:19.674Z,1.88
2023-04-19T07:31:47.192Z,4.22
2023-04-19T07:34:14.956Z,2.85
2023-04-19T07:36:42.744Z,3.45
2023-04-19T07:39:10.213Z,3.17
2023-04-19T07:41:37.696Z,4.15
2023-04-19T07:44:05.343Z,2.25
2023-04-19T07:46:32.951Z,4.43
2023-04-19T07:49:00.678Z,2.42
2023-04-19T07:51:28.283Z,4.65
2023-04-19T07:53:55.935Z,3.92
2023-04-19T07:56:23.764Z,9.05
2023-04-19T07:59:04.316Z,2.05
2023-04-19T08:01:36.099Z,3.70
2023-04-19T08:04:04.224Z,3.25
2023-04-19T08:06:32.718Z,4.85
2023-04-19T08:09:00.376Z,4.25
2023-04-19T08:11:28.052Z,5.47
2023-04-19T08:14:06.867Z,5.25
2023-04-19T08:17:19.246Z,6.50
2023-04-19T08:19:30.319Z,4.97
2023-04-19T08:21:57.819Z,7.13
2023-04-19T08:24:25.383Z,7.30
2023-04-19T08:26:58.205Z,5.15
2023-04-19T08:29:26.945Z,5.53
2023-04-19T08:31:54.563Z,6.18
2023-04-19T08:34:22.143Z,8.05
2023-04-19T08:37:00.185Z,5.70
2023-04-19T08:39:35.248Z,5.18
2023-04-19T08:42:13.459Z,5.03
2023-04-19T08:45:23.562Z,5.75
2023-04-19T08:47:58.748Z,5.25
2023-04-19T08:50:35.422Z,6.15
2023-04-19T08:56:03.425Z,5.13
2023-04-19T09:01:12.803Z,5.93
2023-04-19T09:04:01.203Z,8.63
2023-04-19T09:06:39.197Z,6.97
2023-04-19T09:09:37.231Z,7.28
2023-04-19T09:12:19.893Z,6.78
2023-04-19T09:17:18.748Z,7.47
2023-04-19T09:19:50.426Z,10.18
2023-04-19T09:22:18.651Z,7.57
2023-04-19T09:27:25.868Z,5.50
2023-04-19T09:29:54.909Z,5.88
2023-04-19T09:32:23.112Z,4.50
2023-04-19T09:34:58.294Z,9.05
2023-04-19T09:37:51.413Z,4.38
2023-04-19T09:40:25.287Z,5.15
2023-04-19T09:48:05.371Z,4.13
2023-04-19T09:50:38.741Z,4.90
2023-04-19T09:53:14.326Z,4.35
2023-04-19T09:55:53.319Z,3.55
2023-04-19T09:58:29.424Z,4.53
2023-04-19T10:01:14.234Z,4.75
2023-04-19T10:03:46.368Z,5.55
2023-04-19T10:06:37.349Z,6.05
2023-04-19T10:09:05.629Z,4.38
2023-04-19T10:11:39.239Z,4.65
2023-04-19T10:16:39.458Z,4.07
2023-04-19T10:19:12.854Z,7.15
2023-04-19T10:21:42.659Z,3.88
2023-04-19T10:24:13.648Z,6.00
2023-04-19T10:27:06.195Z,3.95
2023-04-19T10:29:52.366Z,4.75
2023-04-19T10:32:20.122Z,6.45
2023-04-19T10:34:47.879Z,3.78
2023-04-19T10:37:15.479Z,5.60
2023-04-19T10:39:44.719Z,4.80
2023-04-19T10:42:13.348Z,5.15
2023-04-19T10:44:40.796Z,4.78
2023-04-19T10:47:08.469Z,4.88
2023-04-19T10:49:46.673Z,3.10
2023-04-19T10:52:32.051Z,5.10
2023-04-19T10:55:04.382Z,4.32
2023-04-19T10:58:05.070Z,5.65
2023-04-19T11:00:33.985Z,4.63
2023-04-19T11:03:42.188Z,4.93
2023-04-19T11:06:27.368Z,3.97
2023-04-19T11:08:55.263Z,5.68
2023-04-19T11:11:23.787Z,4.75
2023-04-19T11:13:58.284Z,3.50
2023-04-19T11:16:42.060Z,3.40
2023-04-19T11:19:21.547Z,6.07
2023-04-19T11:21:49.956Z,9.57
2023-04-19T11:24:20.989Z,4.80
2023-04-19T11:26:49.049Z,6.10
2023-04-19T11:29:17.152Z,4.88
2023-04-19T11:31:46.892Z,4.45
2023-04-19T11:34:15.042Z,5.60
2023-04-19T11:36:52.419Z,6.25
2023-04-19T11:39:20.210Z,5.35
2023-04-19T11:41:47.752Z,3.17
2023-04-19T11:44:22.412Z,2.90
2023-04-19T11:47:01.068Z,5.47
2023-04-19T11:49:33.913Z,4.32
2023-04-19T11:52:05.522Z,6.18
2023-04-19T11:54:36.292Z,7.22
2023-04-19T11:57:08.135Z,4.05
2023-04-19T11:59:37.243Z,4.78
2023-04-19T12:02:12.659Z,6.32
2023-04-19T12:04:44.806Z,7.15
2023-04-19T12:07:15.366Z,4.72
2023-04-19T12:09:42.840Z,4.30
2023-04-19T12:12:10.610Z,6.80
2023-04-19T12:14:52.393Z,4.53
2023-04-19T12:17:22.874Z,3.47
2023-04-19T12:19:52.364Z,4.15
2023-04-19T12:22:26.506Z,4.05
2023-04-19T12:24:56.155Z,3.72
2023-04-19T12:27:25.881Z,5.38
2023-04-19T12:29:53.436Z,6.10
2023-04-19T12:32:21.456Z,7.30
2023-04-19T12:34:48.986Z,3.45
2023-04-19T12:37:16.481Z,7.35
2023-04-19T12:39:43.974Z,4.13
2023-04-19T12:42:11.585Z,6.97
2023-04-19T12:44:39.341Z,3.67
2023-04-19T12:47:06.861Z,7.35
2023-04-19T12:49:34.602Z,5.55
2023-04-19T12:52:02.340Z,3.90
2023-04-19T12:54:29.875Z,4.50
2023-04-19T12:56:58.022Z,18.48
2023-04-19T12:59:25.626Z,4.15
2023-04-19T13:01:53.368Z,3.83
2023-04-19T13:04:21.388Z,6.40
2023-04-19T13:06:52.368Z,7.03
2023-04-19T13:09:20.008Z,3.92
2023-04-19T13:11:47.763Z,4.00
2023-04-19T13:14:15.627Z,4.15
2023-04-19T13:16:43.414Z,4.60
2023-04-19T13:19:11.444Z,7.88
2023-04-19T13:21:39.093Z,4.25
2023-04-19T13:24:07.196Z,5.53
2023-04-19T13:26:35.336Z,3.05
2023-04-19T13:29:03.738Z,5.03
2023-04-19T13:31:31.576Z,6.10
2023-04-19T13:34:00.952Z,3.33
2023-04-19T13:36:28.696Z,5.90
2023-04-19T13:38:56.435Z,4.22
2023-04-19T13:41:24.204Z,5.72
2023-04-19T13:43:51.887Z,5.25
2023-04-19T13:46:19.540Z,5.93
2023-04-19T13:48:48.070Z,4.47
2023-04-19T13:51:15.797Z,4.20
2023-04-19T13:53:43.349Z,5.82
2023-04-19T13:56:11.578Z,8.75
2023-04-19T13:58:39.396Z,3.50
2023-04-19T14:01:10.061Z,6.80
2023-04-19T14:03:39.981Z,3.63
2023-04-19T14:06:08.729Z,4.22
2023-04-19T14:08:36.681Z,4.63
2023-04-19T14:11:04.656Z,5.70
2023-04-19T14:13:32.556Z,4.68
2023-04-19T14:16:00.230Z,5.25
2023-04-19T14:18:27.960Z,4.65
2023-04-19T14:20:55.839Z,4.47
2023-04-19T14:23:23.558Z,4.38
2023-04-19T14:25:51.350Z,4.28
2023-04-19T14:28:19.884Z,6.68
2023-04-19T14:30:47.579Z,4.38
2023-04-19T14:33:15.370Z,5.53
2023-04-19T14:35:43.462Z,3.92
2023-04-19T14:38:11.520Z,4.80
2023-04-19T14:40:39.191Z,3.75
2023-04-19T14:43:06.943Z,5.18
2023-04-19T14:45:35.419Z,3.55
2023-04-19T14:48:03.262Z,4.95
2023-04-19T14:50:31.028Z,5.20
2023-04-19T14:52:58.800Z,7.75
2023-04-19T14:55:28.205Z,6.00
2023-04-19T14:57:56.049Z,4.55
2023-04-19T15:00:23.756Z,5.43
2023-04-19T15:02:51.726Z,5.43
2023-04-19T15:05:19.835Z,6.20
2023-04-19T15:07:47.584Z,7.20
2023-04-19T15:10:15.283Z,6.35
2023-04-19T15:12:42.959Z,6.32
2023-04-19T15:15:11.221Z,7.32
2023-04-19T15:17:39.057Z,4.95
2023-04-19T15:20:07.400Z,4.97
2023-04-19T15:22:35.078Z,6.60
2023-04-19T15:25:02.829Z,9.10
2023-04-19T15:27:31.701Z,6.80
2023-04-19T15:29:59.365Z,10.90
2023-04-19T15:32:27.897Z,8.10
2023-04-19T15:34:55.569Z,9.18
2023-04-19T15:37:23.204Z,10.05
2023-04-19T15:39:50.990Z,10.18
2023-04-19T15:42:18.736Z,12.68
2023-04-19T15:44:46.446Z,11.75
2023-04-19T15:47:14.020Z,12.85
2023-04-19T15:49:41.794Z,13.93
2023-04-19T15:52:09.901Z,11.63
2023-04-19T15:54:38.072Z,12.55
2023-04-19T15:57:05.697Z,22.73
2023-04-19T15:59:33.415Z,12.80
2023-04-19T16:02:01.286Z,13.68
2023-04-19T16:04:29.064Z,16.75
2023-04-19T16:06:56.816Z,13.57
2023-04-19T16:09:24.474Z,16.23
2023-04-19T16:11:52.248Z,9.90
2023-04-19T16:14:19.920Z,12.38
2023-04-19T16:16:48.277Z,14.00
2023-04-19T16:19:16.234Z,16.25
2023-04-19T16:21:44.097Z,15.45
2023-04-19T16:24:11.784Z,15.85
2023-04-19T16:26:39.545Z,16.05
2023-04-19T16:29:07.245Z,16.25
2023-04-19T16:31:37.304Z,20.02
2023-04-19T16:34:05.057Z,12.23
2023-04-19T16:36:32.942Z,15.35
2023-04-19T16:39:01.736Z,16.27
2023-04-19T16:41:30.591Z,16.10
2023-04-19T16:43:58.310Z,13.88
2023-04-19T16:46:26.145Z,18.52
2023-04-19T16:48:53.945Z,13.80
2023-04-19T16:51:22.008Z,14.55
2023-04-19T16:53:49.676Z,17.58
2023-04-19T16:56:17.965Z,16.55
2023-04-19T16:58:46.659Z,16.55
2023-04-19T17:01:14.999Z,23.08
2023-04-19T17:03:43.241Z,20.02
2023-04-19T17:06:11.140Z,20.70
2023-04-19T17:08:40.207Z,23.13
2023-04-19T17:11:13.984Z,19.58
2023-04-19T17:13:41.664Z,17.85
2023-04-19T17:16:09.323Z,20.15
2023-04-19T17:18:37.110Z,16.13
2023-04-19T17:21:04.770Z,17.48
2023-04-19T17:23:32.466Z,18.65
2023-04-19T17:26:00.176Z,14.23
2023-04-19T17:28:28.773Z,15.23
2023-04-19T17:30:56.824Z,18.55
2023-04-19T17:33:24.352Z,19.15
2023-04-19T17:35:52.120Z,17.42
2023-04-19T17:38:19.686Z,17.85
2023-04-19T17:40:47.560Z,13.90
2023-04-19T17:43:15.565Z,19.05
2023-04-19T17:45:43.153Z,15.70
2023-04-19T17:48:10.915Z,18.75
2023-04-19T17:50:38.598Z,16.80
2023-04-19T17:53:06.181Z,19.40
2023-04-19T17:55:34.156Z,17.65
2023-04-19T17:58:01.937Z,17.83
2023-04-19T18:00:29.771Z,18.15
2023-04-19T18:02:57.550Z,15.18
2023-04-19T18:05:25.347Z,17.67
2023-04-19T18:07:53.075Z,17.65
2023-04-19T18:10:21.575Z,20.85
2023-04-19T18:12:49.418Z,13.57
2023-04-19T18:15:17.153Z,10.90
2023-04-19T18:17:44.838Z,15.48
2023-04-19T18:20:13.774Z,14.35
2023-04-19T18:22:41.671Z,17.60
2023-04-19T18:25:09.803Z,17.65
2023-04-19T18:27:37.529Z,15.27
2023-04-19T18:30:06.912Z,6.82
2023-04-19T18:32:35.909Z,14.48
2023-04-19T18:35:09.199Z,16.25
2023-04-19T18:37:36.895Z,14.32
2023-04-19T18:40:08.409Z,13.38
2023-04-19T18:42:36.119Z,13.77
2023-04-19T18:45:04.445Z,12.50
2023-04-19T18:47:32.981Z,17.00
2023-04-19T18:50:05.983Z,13.57
2023-04-19T18:52:36.735Z,15.68
2023-04-19T18:55:07.828Z,13.70
2023-04-19T18:57:35.637Z,12.38
2023-04-19T19:00:06.695Z,14.02
2023-04-19T19:02:36.666Z,16.55
2023-04-19T19:05:07.456Z,12.45
2023-04-19T19:07:37.111Z,15.13
2023-04-19T19:12:40.058Z,14.77
2023-04-19T19:15:08.622Z,15.82
2023-04-19T19:17:36.460Z,21.80
2023-04-19T19:20:05.783Z,16.80
2023-04-19T19:22:34.110Z,15.82
2023-04-19T19:25:01.858Z,18.40
2023-04-19T19:27:30.833Z,14.38
2023-04-19T19:29:59.059Z,16.30
2023-04-19T19:32:26.858Z,12.57
2023-04-19T19:35:00.582Z,11.95
2023-04-19T19:37:30.601Z,12.07
2023-04-19T19:40:02.733Z,12.35
2023-04-19T19:42:32.187Z,13.27
2023-04-19T19:44:59.910Z,10.18
2023-04-19T19:47:32.738Z,11.18
2023-04-19T19:52:32.257Z,11.55
2023-04-19T19:55:01.324Z,10.40
2023-04-19T20:00:18.027Z,12.05
2023-04-19T20:05:19.367Z,8.10
2023-04-19T20:08:00.987Z,8.27
2023-04-19T20:10:29.770Z,7.30
2023-04-19T20:12:57.659Z,9.10
2023-04-19T20:15:25.335Z,7.00
2023-04-19T20:17:52.982Z,7.47
2023-04-19T20:20:21.302Z,7.88
2023-04-19T20:22:49.560Z,6.18
2023-04-19T20:25:17.339Z,7.90
2023-04-19T20:27:45.087Z,7.47
2023-04-19T20:30:13.427Z,8.35
2023-04-19T20:32:43.175Z,9.18
2023-04-19T20:35:12.671Z,10.52
2023-04-19T20:37:40.625Z,8.65
2023-04-19T20:40:12.656Z,12.40
2023-04-19T20:42:41.509Z,8.80
2023-04-19T20:45:13.156Z,9.10
2023-04-19T20:47:41.490Z,12.00
2023-04-19T20:50:09.694Z,9.13
2023-04-19T20:52:37.472Z,11.40
2023-04-19T20:55:05.567Z,10.65
2023-04-19T20:57:33.390Z,8.65
2023-04-19T21:00:01.056Z,10.43
2023-04-19T21:02:31.949Z,10.10
2023-04-19T21:04:59.779Z,9.48
2023-04-19T21:07:27.479Z,7.25
2023-04-19T21:09:55.107Z,7.38
2023-04-19T21:12:22.846Z,10.15
2023-04-19T21:15:05.359Z,7.25
2023-04-19T21:17:33.113Z,7.40
2023-04-19T21:20:02.858Z,6.82
2023-04-19T21:22:30.945Z,10.10
2023-04-19T21:24:58.724Z,8.98
2023-04-19T21:27:26.420Z,7.97
2023-04-19T21:29:53.958Z,11.38
2023-04-19T21:32:22.977Z,8.68
2023-04-19T21:34:50.572Z,10.55
2023-04-19T21:37:20.125Z,7.05
2023-04-19T21:39:48.741Z,6.80
2023-04-19T21:42:16.445Z,9.77
2023-04-19T21:44:44.149Z,5.72
2023-04-19T21:47:12.756Z,9.38
2023-04-19T21:49:41.413Z,7.20
2023-04-19T21:52:09.005Z,6.70
2023-04-19T21:54:36.888Z,7.95
2023-04-19T21:57:04.650Z,7.63
2023-04-19T21:59:35.957Z,7.75
2023-04-19T22:02:04.173Z,5.22
2023-04-19T22:04:32.111Z,5.25
2023-04-19T22:07:03.065Z,5.72
2023-04-19T22:09:31.162Z,9.80
2023-04-19T22:11:58.858Z,10.07
2023-04-19T22:14:26.479Z,6.95
2023-04-19T22:16:54.599Z,7.68
2023-04-19T22:19:24.930Z,6.82
2023-04-19T22:21:53.720Z,6.10
2023-04-19T22:24:22.732Z,8.73
2023-04-19T22:26:51.299Z,9.23
2023-04-19T22:29:19.761Z,6.63
2023-04-19T22:31:47.718Z,8.80
2023-04-19T22:34:15.376Z,7.07
2023-04-19T22:36:43.080Z,5.80
2023-04-19T22:39:10.814Z,5.97
2023-04-19T22:41:38.584Z,4.93
2023-04-19T22:44:06.394Z,6.22
2023-04-19T22:46:34.072Z,6.03
2023-04-19T22:49:02.437Z,5.47
2023-04-19T22:51:30.872Z,6.53
2023-04-19T22:53:58.745Z,5.75
2023-04-19T22:56:26.743Z,6.78
2023-04-19T22:58:54.392Z,7.45
2023-04-19T23:01:22.260Z,7.45
2023-04-19T23:03:49.830Z,8.65
2023-04-19T23:06:18.278Z,11.07
2023-04-19T23:08:46.076Z,8.50
2023-04-19T23:11:14.119Z,8.30
2023-04-19T23:13:41.888Z,10.25
2023-04-19T23:16:12.454Z,8.55
2023-04-19T23:18:40.710Z,8.48
2023-04-19T23:21:08.957Z,9.80
2023-04-19T23:23:36.629Z,9.65
2023-04-19T23:26:04.199Z,10.23
2023-04-19T23:28:32.120Z,8.90
2023-04-19T23:30:59.724Z,10.77
2023-04-19T23:33:27.464Z,8.73
2023-04-19T23:35:55.047Z,11.40
2023-04-19T23:38:23.047Z,10.98
2023-04-19T23:40:50.836Z,9.73
2023-04-19T23:43:18.493Z,11.82
2023-04-19T23:45:46.517Z,11.55
2023-04-19T23:48:14.106Z,11.38
2023-04-19T23:50:41.803Z,10.63
2023-04-19T23:53:09.531Z,9.73
2023-04-19T23:55:38.682Z,10.93
2023-04-19T23:58:06.943Z,8.70
